createdAt,value
2023-05-01T00:00:37.687Z,12.22
2023-05-01T00:03:04.329Z,12.24
2023-05-01T00:05:31.593Z,12.22
2023-05-01T00:07:58.122Z,12.21
2023-05-01T00:10:24.528Z,12.26
2023-05-01T00:12:51.135Z,12.26
2023-05-01T00:15:17.613Z,12.33
2023-05-01T00:17:44.136Z,12.37
2023-05-01T00:20:11.047Z,12.33
2023-05-01T00:22:37.674Z,12.33
2023-05-01T00:25:04.321Z,12.34
2023-05-01T00:27:30.730Z,12.33
2023-05-01T00:29:57.538Z,12.33
2023-05-01T00:32:24.526Z,12.32
2023-05-01T00:34:51.385Z,12.38
2023-05-01T00:37:18.288Z,12.34
2023-05-01T00:39:44.693Z,12.36
2023-05-01T00:42:11.413Z,12.37
2023-05-01T00:44:37.878Z,12.36
2023-05-01T00:47:04.588Z,12.33
2023-05-01T00:49:31.413Z,12.29
2023-05-01T00:51:58.484Z,12.39
2023-05-01T00:54:27.571Z,12.33
2023-05-01T00:56:54.684Z,12.32
2023-05-01T00:59:22.068Z,12.27
2023-05-01T01:01:48.791Z,12.29
2023-05-01T01:04:15.526Z,12.27
2023-05-01T01:07:02.257Z,12.26
2023-05-01T01:09:50.336Z,12.28
2023-05-01T01:12:34.482Z,12.23
2023-05-01T01:15:15.970Z,12.18
2023-05-01T01:17:53.017Z,12.25
2023-05-01T01:20:28.630Z,12.17
2023-05-01T01:23:24.949Z,12.20
2023-05-01T01:26:24.443Z,12.17
2023-05-01T01:29:17.544Z,12.16
2023-05-01T01:32:02.282Z,12.16
2023-05-01T01:34:39.858Z,12.14
2023-05-01T01:37:36.539Z,12.13
2023-05-01T01:40:28.120Z,12.13
2023-05-01T01:43:18.827Z,12.15
2023-05-01T01:46:08.085Z,12.11
2023-05-01T01:48:57.314Z,12.08
2023-05-01T01:51:47.525Z,12.04
2023-05-01T01:54:19.083Z,12.01
2023-05-01T01:56:48.214Z,12.02
2023-05-01T01:59:16.537Z,11.98
2023-05-01T02:01:44.468Z,11.92
2023-05-01T02:04:13.982Z,11.88
2023-05-01T02:06:42.516Z,11.87
2023-05-01T02:09:10.656Z,11.88
2023-05-01T02:11:38.217Z,11.91
2023-05-01T02:14:07.684Z,11.86
2023-05-01T02:16:35.899Z,11.82
2023-05-01T02:19:04.853Z,11.83
2023-05-01T02:21:34.477Z,11.87
2023-05-01T02:24:02.336Z,11.82
2023-05-01T02:26:29.817Z,11.81
2023-05-01T02:28:56.696Z,11.79
2023-05-01T02:31:23.396Z,11.76
2023-05-01T02:33:50.139Z,11.79
2023-05-01T02:36:17.041Z,11.77
2023-05-01T02:38:44.277Z,11.76
2023-05-01T02:41:11.954Z,11.74
2023-05-01T02:43:41.473Z,11.78
2023-05-01T02:46:10.692Z,11.78
2023-05-01T02:48:38.689Z,11.77
2023-05-01T02:51:07.054Z,11.82
2023-05-01T02:53:34.070Z,11.79
2023-05-01T02:56:08.801Z,11.80
2023-05-01T02:58:35.575Z,11.83
2023-05-01T03:01:02.446Z,11.81
2023-05-01T03:03:29.263Z,11.79
2023-05-01T03:05:55.735Z,11.81
2023-05-01T03:08:22.362Z,11.75
2023-05-01T03:10:49.496Z,11.78
2023-05-01T03:13:16.736Z,11.74
2023-05-01T03:15:44.079Z,11.73
2023-05-01T03:18:13.307Z,11.76
2023-05-01T03:20:39.859Z,11.74
2023-05-01T03:23:07.667Z,11.71
2023-05-01T03:25:34.419Z,11.67
2023-05-01T03:28:01.494Z,11.66
2023-05-01T03:30:28.144Z,11.73
2023-05-01T03:32:55.241Z,11.72
2023-05-01T03:35:28.152Z,11.68
2023-05-01T03:37:55.572Z,11.71
2023-05-01T03:41:00.563Z,11.68
2023-05-01T03:43:45.587Z,11.64
2023-05-01T03:46:26.382Z,11.64
2023-05-01T03:48:52.938Z,11.64
2023-05-01T03:51:20.382Z,11.64
2023-05-01T03:53:47.321Z,11.60
2023-05-01T03:56:13.855Z,11.62
2023-05-01T03:58:40.345Z,11.60
2023-05-01T04:01:06.938Z,11.63
2023-05-01T04:03:37.230Z,11.61
2023-05-01T04:06:04.067Z,11.58
2023-05-01T04:08:30.516Z,11.52
2023-05-01T04:10:57.078Z,11.57
2023-05-01T04:13:23.596Z,11.55
2023-05-01T04:15:50.616Z,11.58
2023-05-01T04:18:17.138Z,11.55
2023-05-01T04:20:44.269Z,11.51
2023-05-01T04:23:10.850Z,11.53
2023-05-01T04:25:37.526Z,11.52
2023-05-01T04:28:13.685Z,11.54
2023-05-01T04:30:40.202Z,11.55
2023-05-01T04:33:11.373Z,11.57
2023-05-01T04:35:39.491Z,11.58
2023-05-01T04:38:07.014Z,11.64
2023-05-01T04:40:34.647Z,11.67
2023-05-01T04:43:01.162Z,11.72
2023-05-01T04:45:27.998Z,11.74
2023-05-01T04:47:55.561Z,11.75
2023-05-01T04:50:22.063Z,11.71
2023-05-01T04:52:48.577Z,11.74
2023-05-01T04:55:15.394Z,11.76
2023-05-01T04:58:04.693Z,11.78
2023-05-01T05:00:32.458Z,11.77
2023-05-01T05:02:59.398Z,11.78
2023-05-01T05:05:26.313Z,11.79
2023-05-01T05:07:53.146Z,11.77
2023-05-01T05:10:36.771Z,11.76
2023-05-01T05:13:25.505Z,11.82
2023-05-01T05:16:04.972Z,11.81
2023-05-01T05:18:32.011Z,11.84
2023-05-01T05:20:59.562Z,11.87
2023-05-01T05:23:26.462Z,11.91
2023-05-01T05:25:52.892Z,11.86
2023-05-01T05:28:19.441Z,11.93
2023-05-01T05:30:47.160Z,11.98
2023-05-01T05:33:16.924Z,11.94
2023-05-01T05:35:43.473Z,11.99
2023-05-01T05:38:10.456Z,12.07
2023-05-01T05:40:39.576Z,12.06
2023-05-01T05:43:06.209Z,12.07
2023-05-01T05:45:34.414Z,12.17
2023-05-01T05:48:01.657Z,12.22
2023-05-01T05:50:30.640Z,12.35
2023-05-01T05:52:57.799Z,12.31
2023-05-01T05:55:24.494Z,12.42
2023-05-01T05:58:02.565Z,12.53
2023-05-01T06:00:29.420Z,12.66
2023-05-01T06:02:58.787Z,12.76
2023-05-01T06:05:28.762Z,12.83
2023-05-01T06:07:55.418Z,12.93
2023-05-01T06:10:21.973Z,12.90
2023-05-01T06:12:55.219Z,13.05
2023-05-01T06:15:28.597Z,13.23
2023-05-01T06:17:57.082Z,13.32
2023-05-01T06:20:23.891Z,13.43
2023-05-01T06:22:50.891Z,13.57
2023-05-01T06:25:23.984Z,13.67
2023-05-01T06:27:51.454Z,13.59
2023-05-01T06:30:21.116Z,13.77
2023-05-01T06:32:48.117Z,13.87
2023-05-01T06:35:15.744Z,14.01
2023-05-01T06:37:42.448Z,14.04
2023-05-01T06:40:11.018Z,14.11
2023-05-01T06:42:39.251Z,14.17
2023-05-01T06:45:07.669Z,14.24
2023-05-01T06:47:34.789Z,14.31
2023-05-01T06:50:02.834Z,14.40
2023-05-01T06:52:33.195Z,14.39
2023-05-01T06:54:59.798Z,14.48
2023-05-01T06:57:26.338Z,14.52
2023-05-01T06:59:54.016Z,14.55
2023-05-01T07:02:21.035Z,14.58
2023-05-01T07:04:47.744Z,14.64
2023-05-01T07:07:14.296Z,14.71
2023-05-01T07:09:41.347Z,14.81
2023-05-01T07:12:08.018Z,14.88
2023-05-01T07:14:35.706Z,14.96
2023-05-01T07:17:02.672Z,15.07
2023-05-01T07:19:29.204Z,14.99
2023-05-01T07:21:55.892Z,15.06
2023-05-01T07:24:22.434Z,15.18
2023-05-01T07:26:49.086Z,15.32
2023-05-01T07:29:16.496Z,15.33
2023-05-01T07:31:44.145Z,15.35
2023-05-01T07:34:11.420Z,15.41
2023-05-01T07:36:38.746Z,15.33
2023-05-01T07:39:06.588Z,15.38
2023-05-01T07:41:33.252Z,15.24
2023-05-01T07:44:00.017Z,15.20
2023-05-01T07:46:27.166Z,15.31
2023-05-01T07:48:53.883Z,15.44
2023-05-01T07:51:20.804Z,15.21
2023-05-01T07:53:48.631Z,15.37
2023-05-01T07:56:15.242Z,15.24
2023-05-01T07:58:42.540Z,15.09
2023-05-01T08:01:09.368Z,15.32
2023-05-01T08:03:36.162Z,15.36
2023-05-01T08:06:02.843Z,15.54
2023-05-01T08:08:29.425Z,15.55
2023-05-01T08:10:56.424Z,15.44
2023-05-01T08:13:22.943Z,15.38
2023-05-01T08:15:49.443Z,15.30
2023-05-01T08:18:20.512Z,15.18
2023-05-01T08:20:48.307Z,15.32
2023-05-01T08:23:18.799Z,15.27
2023-05-01T08:25:51.034Z,15.47
2023-05-01T08:28:20.705Z,15.43
2023-05-01T08:30:49.076Z,15.60
2023-05-01T08:33:16.453Z,15.55
2023-05-01T08:35:43.264Z,15.66
2023-05-01T08:38:11.474Z,15.61
2023-05-01T08:40:38.992Z,15.79
2023-05-01T08:43:05.702Z,15.78
2023-05-01T08:45:37.738Z,15.63
2023-05-01T08:48:10.265Z,15.85
2023-05-01T08:50:39.472Z,15.84
2023-05-01T08:53:06.837Z,15.81
2023-05-01T08:55:35.820Z,15.86
2023-05-01T08:58:04.257Z,15.85
2023-05-01T09:00:31.618Z,16.01
2023-05-01T09:03:01.085Z,16.15
2023-05-01T09:05:27.774Z,16.35
2023-05-01T09:07:55.174Z,16.46
2023-05-01T09:10:21.767Z,16.49
2023-05-01T09:12:54.127Z,16.62
2023-05-01T09:15:21.564Z,16.48
2023-05-01T09:17:48.157Z,16.38
2023-05-01T09:20:15.802Z,16.71
2023-05-01T09:22:42.651Z,16.52
2023-05-01T09:25:10.814Z,16.00
2023-05-01T09:27:40.461Z,16.33
2023-05-01T09:30:08.879Z,16.14
2023-05-01T09:32:35.976Z,15.94
2023-05-01T09:35:15.475Z,16.09
2023-05-01T09:37:42.050Z,16.26
2023-05-01T09:40:15.998Z,15.64
2023-05-01T09:42:52.931Z,15.95
2023-05-01T09:45:20.086Z,15.86
2023-05-01T09:47:46.963Z,16.13
2023-05-01T09:50:35.170Z,16.32
2023-05-01T09:53:04.671Z,16.25
2023-05-01T09:55:31.578Z,16.32
2023-05-01T09:57:58.945Z,16.67
2023-05-01T10:00:26.005Z,16.38
2023-05-01T10:02:53.462Z,16.76
2023-05-01T10:05:20.315Z,17.22
2023-05-01T10:08:04.826Z,17.73
2023-05-01T10:10:31.551Z,17.58
2023-05-01T10:13:14.282Z,18.24
2023-05-01T10:15:40.918Z,18.07
2023-05-01T10:18:11.357Z,18.51
2023-05-01T10:20:37.918Z,18.46
2023-05-01T10:23:04.772Z,18.42
2023-05-01T10:25:32.696Z,18.09
2023-05-01T10:28:02.999Z,18.94
2023-05-01T10:30:30.208Z,18.82
2023-05-01T10:32:57.769Z,19.01
2023-05-01T10:35:40.446Z,19.43
2023-05-01T10:38:11.547Z,19.40
2023-05-01T10:40:41.177Z,19.49
2023-05-01T10:43:25.573Z,20.35
2023-05-01T10:45:53.275Z,20.47
2023-05-01T10:48:38.636Z,20.04
2023-05-01T10:51:23.240Z,20.50
2023-05-01T10:54:16.782Z,20.23
2023-05-01T10:56:44.004Z,19.82
2023-05-01T10:59:11.838Z,19.23
2023-05-01T11:01:39.959Z,19.36
2023-05-01T11:04:22.070Z,19.77
2023-05-01T11:07:11.470Z,20.68
2023-05-01T11:09:42.315Z,20.50
2023-05-01T11:12:11.331Z,20.67
2023-05-01T11:15:08.816Z,19.92
2023-05-01T11:17:41.925Z,19.88
2023-05-01T11:20:24.481Z,19.88
2023-05-01T11:22:52.993Z,21.11
2023-05-01T11:25:21.228Z,20.83
2023-05-01T11:27:49.440Z,20.40
2023-05-01T11:30:16.297Z,19.64
2023-05-01T11:32:48.396Z,19.62
2023-05-01T11:35:21.103Z,20.44
2023-05-01T11:37:48.449Z,19.99
2023-05-01T11:40:29.731Z,20.14
2023-05-01T11:43:07.379Z,19.95
2023-05-01T11:45:36.622Z,20.45
2023-05-01T11:48:04.893Z,20.69
2023-05-01T11:50:39.135Z,20.57
2023-05-01T11:53:15.769Z,20.88
2023-05-01T11:55:43.445Z,21.46
2023-05-01T11:58:10.602Z,21.66
2023-05-01T12:00:42.705Z,22.08
2023-05-01T12:03:12.015Z,22.13
2023-05-01T12:05:42.308Z,20.46
2023-05-01T12:08:23.830Z,20.64
2023-05-01T12:10:58.259Z,21.76
2023-05-01T12:13:27.103Z,23.02
2023-05-01T12:15:55.274Z,21.32
2023-05-01T12:18:22.443Z,21.15
2023-05-01T12:20:51.967Z,20.97
2023-05-01T12:23:34.425Z,21.06
2023-05-01T12:26:02.982Z,20.84
2023-05-01T12:28:31.543Z,20.85
2023-05-01T12:31:04.654Z,21.03
2023-05-01T12:33:31.897Z,21.41
2023-05-01T12:36:09.947Z,21.82
2023-05-01T12:38:36.709Z,22.11
2023-05-01T12:41:06.968Z,22.16
2023-05-01T12:43:34.991Z,22.47
2023-05-01T12:46:02.569Z,23.69
2023-05-01T12:48:30.641Z,24.17
2023-05-01T12:50:57.620Z,22.25
2023-05-01T12:53:25.731Z,21.54
2023-05-01T12:55:57.683Z,21.80
2023-05-01T12:58:35.505Z,21.19
2023-05-01T13:01:02.341Z,22.87
2023-05-01T13:03:30.153Z,22.64
2023-05-01T13:06:02.385Z,22.62
2023-05-01T13:08:33.859Z,23.80
2023-05-01T13:11:09.096Z,23.00
2023-05-01T13:13:37.374Z,21.99
2023-05-01T13:16:12.373Z,21.77
2023-05-01T13:18:47.606Z,22.14
2023-05-01T13:21:16.400Z,21.76
2023-05-01T13:23:58.374Z,22.54
2023-05-01T13:26:28.000Z,21.71
2023-05-01T13:28:55.665Z,21.54
2023-05-01T13:31:22.251Z,21.38
2023-05-01T13:33:51.924Z,22.27
2023-05-01T13:36:26.328Z,22.41
2023-05-01T13:38:56.252Z,21.53
2023-05-01T13:41:25.782Z,20.90
2023-05-01T13:43:54.537Z,21.34
2023-05-01T13:46:23.550Z,21.90
2023-05-01T13:48:50.362Z,21.66
2023-05-01T13:51:23.537Z,21.83
2023-05-01T13:53:50.646Z,21.92
2023-05-01T13:56:17.250Z,22.31
2023-05-01T13:58:43.681Z,22.37
2023-05-01T14:01:19.195Z,22.46
2023-05-01T14:03:46.352Z,22.67
2023-05-01T14:06:14.890Z,23.55
2023-05-01T14:08:42.977Z,24.18
2023-05-01T14:11:11.586Z,25.18
2023-05-01T14:13:46.167Z,25.86
2023-05-01T14:16:25.150Z,25.86
2023-05-01T14:18:54.752Z,25.75
2023-05-01T14:21:24.028Z,24.72
2023-05-01T14:23:53.098Z,25.27
2023-05-01T14:26:20.975Z,25.13
2023-05-01T14:28:48.140Z,24.45
2023-05-01T14:31:28.477Z,23.50
2023-05-01T14:34:01.192Z,24.30
2023-05-01T14:36:31.228Z,24.90
2023-05-01T14:38:58.258Z,24.54
2023-05-01T14:41:25.688Z,24.62
2023-05-01T14:43:55.807Z,23.88
2023-05-01T14:46:28.921Z,24.57
2023-05-01T14:48:55.693Z,24.27
2023-05-01T14:51:22.645Z,22.59
2023-05-01T14:53:49.271Z,23.90
2023-05-01T14:56:16.111Z,24.69
2023-05-01T14:58:42.887Z,25.15
2023-05-01T15:01:09.589Z,26.19
2023-05-01T15:03:40.883Z,25.52
2023-05-01T15:06:09.074Z,26.92
2023-05-01T15:08:36.211Z,27.85
2023-05-01T15:11:02.874Z,27.31
2023-05-01T15:13:31.619Z,27.91
2023-05-01T15:15:58.795Z,28.14
2023-05-01T15:18:25.480Z,27.18
2023-05-01T15:20:52.157Z,26.27
2023-05-01T15:23:18.618Z,25.80
2023-05-01T15:25:45.069Z,24.64
2023-05-01T15:28:16.110Z,22.93
2023-05-01T15:30:46.950Z,23.31
2023-05-01T15:33:17.081Z,24.11
2023-05-01T15:35:46.292Z,24.33
2023-05-01T15:38:13.210Z,24.13
2023-05-01T15:40:42.461Z,23.93
2023-05-01T15:43:09.127Z,22.27
2023-05-01T15:45:35.776Z,23.01
2023-05-01T15:48:03.013Z,22.54
2023-05-01T15:50:29.751Z,21.42
2023-05-01T15:52:57.093Z,21.42
2023-05-01T15:55:23.497Z,21.29
2023-05-01T15:57:50.065Z,21.12
2023-05-01T16:00:17.298Z,21.36
2023-05-01T16:02:44.827Z,21.07
2023-05-01T16:05:16.380Z,21.22
2023-05-01T16:07:44.798Z,21.25
2023-05-01T16:10:12.107Z,21.04
2023-05-01T16:12:38.624Z,21.03
2023-05-01T16:15:05.592Z,20.53
2023-05-01T16:17:33.794Z,20.08
2023-05-01T16:20:02.208Z,19.96
2023-05-01T16:22:29.372Z,20.35
2023-05-01T16:24:58.086Z,20.25
2023-05-01T16:27:24.621Z,20.71
2023-05-01T16:29:51.398Z,20.60
2023-05-01T16:32:17.978Z,20.73
2023-05-01T16:34:44.718Z,20.78
2023-05-01T16:37:13.685Z,20.68
2023-05-01T16:39:40.231Z,20.06
2023-05-01T16:42:07.211Z,20.47
2023-05-01T16:44:35.590Z,20.76
2023-05-01T16:47:03.334Z,20.72
2023-05-01T16:49:30.075Z,20.96
2023-05-01T16:51:58.188Z,20.88
2023-05-01T16:54:32.062Z,20.65
2023-05-01T16:56:59.182Z,20.77
2023-05-01T16:59:26.046Z,20.63
2023-05-01T17:01:52.690Z,19.97
2023-05-01T17:04:19.946Z,19.90
2023-05-01T17:06:46.515Z,19.53
2023-05-01T17:09:13.154Z,19.48
2023-05-01T17:11:56.464Z,19.78
2023-05-01T17:14:23.482Z,19.34
2023-05-01T17:16:50.458Z,19.43
2023-05-01T17:19:17.314Z,19.86
2023-05-01T17:21:43.803Z,19.71
2023-05-01T17:24:10.834Z,19.33
2023-05-01T17:26:37.346Z,19.13
2023-05-01T17:29:03.773Z,19.44
2023-05-01T17:31:30.727Z,19.55
2023-05-01T17:33:57.366Z,19.60
2023-05-01T17:36:23.902Z,19.54
2023-05-01T17:38:50.531Z,19.38
2023-05-01T17:41:17.032Z,19.44
2023-05-01T17:43:46.413Z,19.40
2023-05-01T17:46:14.270Z,19.29
2023-05-01T17:48:44.504Z,19.24
2023-05-01T17:51:13.939Z,19.10
2023-05-01T17:53:41.459Z,19.06
2023-05-01T17:56:09.091Z,19.11
2023-05-01T17:58:35.769Z,18.92
2023-05-01T18:01:04.618Z,18.87
2023-05-01T18:03:32.964Z,18.88
2023-05-01T18:06:01.286Z,18.53
2023-05-01T18:08:28.137Z,18.53
2023-05-01T18:10:54.658Z,18.57
2023-05-01T18:13:27.538Z,18.41
2023-05-01T18:15:57.209Z,18.39
2023-05-01T18:18:24.286Z,18.28
2023-05-01T18:20:50.966Z,18.26
2023-05-01T18:23:18.783Z,18.14
2023-05-01T18:25:46.404Z,17.97
2023-05-01T18:28:13.202Z,17.99
2023-05-01T18:30:39.722Z,17.87
2023-05-01T18:33:06.182Z,17.39
2023-05-01T18:35:33.683Z,17.28
2023-05-01T18:38:00.313Z,17.06
2023-05-01T18:40:31.962Z,16.97
2023-05-01T18:43:23.552Z,17.11
2023-05-01T18:46:00.800Z,16.92
2023-05-01T18:48:45.227Z,17.09
2023-05-01T18:51:22.451Z,16.99
2023-05-01T18:54:07.733Z,16.98
2023-05-01T18:56:39.485Z,17.03
2023-05-01T18:59:20.151Z,16.94
2023-05-01T19:02:03.632Z,16.88
2023-05-01T19:04:58.264Z,16.71
2023-05-01T19:07:32.539Z,16.40
2023-05-01T19:10:09.085Z,16.41
2023-05-01T19:12:46.703Z,16.44
2023-05-01T19:15:18.829Z,16.43
2023-05-01T19:18:10.327Z,16.45
2023-05-01T19:20:43.137Z,16.24
2023-05-01T19:23:26.775Z,16.30
2023-05-01T19:25:53.372Z,15.98
2023-05-01T19:28:19.907Z,15.93
2023-05-01T19:30:46.344Z,15.99
2023-05-01T19:33:12.986Z,15.88
2023-05-01T19:35:39.543Z,16.05
2023-05-01T19:38:06.035Z,15.88
2023-05-01T19:40:32.633Z,15.59
2023-05-01T19:42:59.279Z,15.54
2023-05-01T19:45:26.360Z,15.70
2023-05-01T19:47:53.021Z,15.70
2023-05-01T19:50:19.491Z,15.75
2023-05-01T19:52:46.010Z,15.48
2023-05-01T19:55:13.157Z,15.41
2023-05-01T19:57:39.844Z,15.31
2023-05-01T20:00:07.038Z,15.12
2023-05-01T20:02:36.682Z,15.21
2023-05-01T20:05:04.634Z,15.44
2023-05-01T20:07:31.538Z,15.52
2023-05-01T20:09:58.214Z,15.44
2023-05-01T20:12:24.841Z,15.59
2023-05-01T20:14:51.745Z,15.14
2023-05-01T20:17:18.491Z,14.88
2023-05-01T20:19:45.205Z,14.88
2023-05-01T20:22:11.740Z,14.85
2023-05-01T20:24:38.258Z,14.87
2023-05-01T20:27:04.812Z,15.02
2023-05-01T20:29:31.469Z,15.25
2023-05-01T20:31:58.903Z,15.24
2023-05-01T20:34:25.784Z,15.14
2023-05-01T20:36:52.461Z,15.27
2023-05-01T20:39:19.011Z,15.13
2023-05-01T20:41:45.501Z,15.06
2023-05-01T20:44:11.957Z,15.16
2023-05-01T20:46:38.445Z,15.14
2023-05-01T20:49:08.572Z,15.13
2023-05-01T20:51:35.082Z,15.07
2023-05-01T20:54:01.516Z,14.79
2023-05-01T20:56:28.021Z,14.97
2023-05-01T20:58:54.717Z,14.92
2023-05-01T21:01:21.371Z,15.00
2023-05-01T21:03:47.964Z,14.95
2023-05-01T21:06:16.104Z,14.97
2023-05-01T21:08:42.769Z,14.91
2023-05-01T21:11:09.568Z,14.91
2023-05-01T21:13:36.087Z,14.84
2023-05-01T21:16:06.205Z,14.81
2023-05-01T21:18:34.114Z,14.83
2023-05-01T21:21:02.379Z,14.88
2023-05-01T21:23:30.089Z,14.72
2023-05-01T21:25:56.810Z,14.75
2023-05-01T21:28:23.545Z,14.75
2023-05-01T21:30:50.780Z,14.74
2023-05-01T21:33:17.869Z,14.71
2023-05-01T21:35:46.717Z,14.67
2023-05-01T21:38:13.709Z,14.52
2023-05-01T21:40:41.943Z,14.50
2023-05-01T21:43:08.699Z,14.47
2023-05-01T21:45:40.251Z,14.42
2023-05-01T21:48:08.234Z,14.44
2023-05-01T21:50:36.754Z,14.20
2023-05-01T21:53:05.628Z,14.33
2023-05-01T21:55:33.520Z,14.36
2023-05-01T21:58:00.898Z,14.32
2023-05-01T22:00:27.970Z,14.42
2023-05-01T22:02:54.478Z,14.35
2023-05-01T22:05:22.944Z,14.24
2023-05-01T22:07:54.341Z,14.26
2023-05-01T22:10:21.114Z,14.33
2023-05-01T22:12:50.670Z,14.16
2023-05-01T22:15:17.238Z,14.18
2023-05-01T22:17:44.668Z,14.33
2023-05-01T22:20:12.007Z,14.31
2023-05-01T22:22:39.908Z,14.32
2023-05-01T22:25:07.402Z,14.34
2023-05-01T22:27:34.534Z,14.36
2023-05-01T22:30:02.078Z,14.35
2023-05-01T22:32:29.108Z,14.33
2023-05-01T22:34:55.793Z,14.31
2023-05-01T22:37:22.843Z,14.31
2023-05-01T22:39:49.289Z,14.27
2023-05-01T22:42:15.860Z,14.12
2023-05-01T22:44:42.397Z,13.90
2023-05-01T22:47:08.985Z,13.81
2023-05-01T22:49:35.399Z,14.06
2023-05-01T22:52:02.826Z,14.11
2023-05-01T22:54:29.371Z,14.14
2023-05-01T22:56:56.166Z,14.13
2023-05-01T22:59:22.852Z,14.07
2023-05-01T23:01:49.558Z,14.07
2023-05-01T23:04:16.346Z,14.10
2023-05-01T23:06:44.413Z,14.04
2023-05-01T23:09:11.845Z,13.94
2023-05-01T23:11:40.810Z,14.03
2023-05-01T23:14:07.674Z,14.03
2023-05-01T23:16:44.635Z,14.00
2023-05-01T23:19:29.354Z,13.99
2023-05-01T23:22:08.935Z,14.00
2023-05-01T23:24:44.469Z,13.89
2023-05-01T23:27:12.462Z,13.91
2023-05-01T23:29:40.600Z,13.87
2023-05-01T23:32:10.716Z,13.87
2023-05-01T23:34:40.008Z,13.94
2023-05-01T23:37:07.018Z,13.94
2023-05-01T23:39:33.542Z,13.93
2023-05-01T23:42:01.312Z,13.91
2023-05-01T23:44:28.178Z,13.92
2023-05-01T23:46:55.085Z,13.85
2023-05-01T23:49:21.567Z,13.79
2023-05-01T23:51:48.201Z,13.53
2023-05-01T23:54:14.899Z,13.64
2023-05-01T23:56:41.520Z,13.67
2023-05-01T23:59:08.179Z,13.77
